sensor_id;sensor_type;location;lat;lon;timestamp;temperature;humidity
17887;DHT22;9069;52.044;7.472;2023-12-22T00:02:18;9.60;99.10
17887;DHT22;9069;52.044;7.472;2023-12-22T00:04:45;9.60;99.10
17887;DHT22;9069;52.044;7.472;2023-12-22T00:07:12;9.50;99.10
17887;DHT22;9069;52.044;7.472;2023-12-22T00:09:39;9.50;99.10
17887;DHT22;9069;52.044;7.472;2023-12-22T00:12:06;9.50;99.10
17887;DHT22;9069;52.044;7.472;2023-12-22T00:14:33;9.50;99.10
17887;DHT22;9069;52.044;7.472;2023-12-22T00:17:00;9.50;99.20
17887;DHT22;9069;52.044;7.472;2023-12-22T00:19:27;9.50;99.20
17887;DHT22;9069;52.044;7.472;2023-12-22T00:21:54;9.50;99.20
17887;DHT22;9069;52.044;7.472;2023-12-22T00:24:21;9.50;99.20
17887;DHT22;9069;52.044;7.472;2023-12-22T00:26:48;9.50;99.20
17887;DHT22;9069;52.044;7.472;2023-12-22T00:29:15;9.50;99.20
17887;DHT22;9069;52.044;7.472;2023-12-22T00:31:45;9.50;99.20
17887;DHT22;9069;52.044;7.472;2023-12-22T00:34:12;9.50;99.20
17887;DHT22;9069;52.044;7.472;2023-12-22T00:36:39;9.50;99.30
17887;DHT22;9069;52.044;7.472;2023-12-22T00:39:06;9.50;99.40
17887;DHT22;9069;52.044;7.472;2023-12-22T00:41:32;9.50;99.40
17887;DHT22;9069;52.044;7.472;2023-12-22T00:43:59;9.50;99.40
17887;DHT22;9069;52.044;7.472;2023-12-22T00:46:26;9.50;99.40
17887;DHT22;9069;52.044;7.472;2023-12-22T00:48:53;9.50;99.40
17887;DHT22;9069;52.044;7.472;2023-12-22T00:51:20;9.50;99.40
17887;DHT22;9069;52.044;7.472;2023-12-22T00:53:47;9.50;99.40
17887;DHT22;9069;52.044;7.472;2023-12-22T00:56:13;9.50;99.40
17887;DHT22;9069;52.044;7.472;2023-12-22T00:58:40;9.50;99.40
17887;DHT22;9069;52.044;7.472;2023-12-22T01:01:08;9.50;99.30
17887;DHT22;9069;52.044;7.472;2023-12-22T01:03:35;9.50;99.30
17887;DHT22;9069;52.044;7.472;2023-12-22T01:06:01;9.50;99.20
17887;DHT22;9069;52.044;7.472;2023-12-22T01:08:29;9.50;99.20
17887;DHT22;9069;52.044;7.472;2023-12-22T01:10:55;9.50;99.20
17887;DHT22;9069;52.044;7.472;2023-12-22T01:13:22;9.60;99.20
17887;DHT22;9069;52.044;7.472;2023-12-22T01:15:49;9.40;99.20
17887;DHT22;9069;52.044;7.472;2023-12-22T01:18:16;9.40;99.20
17887;DHT22;9069;52.044;7.472;2023-12-22T01:20:43;9.40;99.20
17887;DHT22;9069;52.044;7.472;2023-12-22T01:23:10;9.40;99.20
17887;DHT22;9069;52.044;7.472;2023-12-22T01:25:37;9.40;99.10
17887;DHT22;9069;52.044;7.472;2023-12-22T01:28:04;9.40;99.10
17887;DHT22;9069;52.044;7.472;2023-12-22T01:30:32;9.40;99.00
17887;DHT22;9069;52.044;7.472;2023-12-22T01:32:59;9.40;99.00
17887;DHT22;9069;52.044;7.472;2023-12-22T01:35:26;9.40;98.90
17887;DHT22;9069;52.044;7.472;2023-12-22T01:37:54;9.50;99.00
17887;DHT22;9069;52.044;7.472;2023-12-22T01:40:23;9.40;99.00
17887;DHT22;9069;52.044;7.472;2023-12-22T01:42:50;9.40;99.00
17887;DHT22;9069;52.044;7.472;2023-12-22T01:45:18;9.40;99.00
17887;DHT22;9069;52.044;7.472;2023-12-22T01:47:46;9.40;99.30
17887;DHT22;9069;52.044;7.472;2023-12-22T01:50:15;9.40;98.90
17887;DHT22;9069;52.044;7.472;2023-12-22T01:52:43;9.40;98.90
17887;DHT22;9069;52.044;7.472;2023-12-22T01:55:11;9.40;99.00
17887;DHT22;9069;52.044;7.472;2023-12-22T01:57:41;9.40;98.80
17887;DHT22;9069;52.044;7.472;2023-12-22T02:00:08;9.40;98.80
17887;DHT22;9069;52.044;7.472;2023-12-22T02:02:40;9.40;98.70
17887;DHT22;9069;52.044;7.472;2023-12-22T02:05:09;9.40;98.70
17887;DHT22;9069;52.044;7.472;2023-12-22T02:07:40;9.40;98.70
17887;DHT22;9069;52.044;7.472;2023-12-22T02:10:10;9.40;98.70
17887;DHT22;9069;52.044;7.472;2023-12-22T02:12:37;9.40;98.40
17887;DHT22;9069;52.044;7.472;2023-12-22T02:15:05;9.40;98.70
17887;DHT22;9069;52.044;7.472;2023-12-22T02:17:35;9.40;98.60
17887;DHT22;9069;52.044;7.472;2023-12-22T02:20:02;9.40;98.70
17887;DHT22;9069;52.044;7.472;2023-12-22T02:22:30;9.40;98.60
17887;DHT22;9069;52.044;7.472;2023-12-22T02:24:58;9.40;98.60
17887;DHT22;9069;52.044;7.472;2023-12-22T02:30:03;9.40;98.30
17887;DHT22;9069;52.044;7.472;2023-12-22T02:32:35;9.40;98.10
17887;DHT22;9069;52.044;7.472;2023-12-22T02:35:10;9.40;98.40
17887;DHT22;9069;52.044;7.472;2023-12-22T02:37:39;9.40;98.10
17887;DHT22;9069;52.044;7.472;2023-12-22T02:40:07;9.40;98.40
17887;DHT22;9069;52.044;7.472;2023-12-22T02:42:37;9.40;98.50
17887;DHT22;9069;52.044;7.472;2023-12-22T02:45:05;9.40;98.40
17887;DHT22;9069;52.044;7.472;2023-12-22T02:47:32;9.40;98.50
17887;DHT22;9069;52.044;7.472;2023-12-22T02:50:00;9.40;98.60
17887;DHT22;9069;52.044;7.472;2023-12-22T02:52:28;9.40;98.60
17887;DHT22;9069;52.044;7.472;2023-12-22T02:54:55;9.40;98.60
17887;DHT22;9069;52.044;7.472;2023-12-22T02:57:21;9.50;98.60
17887;DHT22;9069;52.044;7.472;2023-12-22T02:59:48;9.50;98.60
17887;DHT22;9069;52.044;7.472;2023-12-22T03:02:15;9.50;98.60
17887;DHT22;9069;52.044;7.472;2023-12-22T03:04:42;9.50;98.50
17887;DHT22;9069;52.044;7.472;2023-12-22T03:07:09;9.50;98.50
17887;DHT22;9069;52.044;7.472;2023-12-22T03:09:36;9.50;98.50
17887;DHT22;9069;52.044;7.472;2023-12-22T03:12:09;9.50;98.50
17887;DHT22;9069;52.044;7.472;2023-12-22T03:14:36;9.40;98.50
17887;DHT22;9069;52.044;7.472;2023-12-22T03:17:04;9.40;98.60
17887;DHT22;9069;52.044;7.472;2023-12-22T03:19:32;9.40;98.60
17887;DHT22;9069;52.044;7.472;2023-12-22T03:22:00;9.30;98.70
17887;DHT22;9069;52.044;7.472;2023-12-22T03:24:26;9.30;98.80
17887;DHT22;9069;52.044;7.472;2023-12-22T03:26:56;9.30;98.80
17887;DHT22;9069;52.044;7.472;2023-12-22T03:29:23;9.20;98.90
17887;DHT22;9069;52.044;7.472;2023-12-22T03:31:50;9.20;99.00
17887;DHT22;9069;52.044;7.472;2023-12-22T03:34:17;9.20;99.10
17887;DHT22;9069;52.044;7.472;2023-12-22T03:36:44;9.20;99.20
17887;DHT22;9069;52.044;7.472;2023-12-22T03:39:17;9.20;99.20
17887;DHT22;9069;52.044;7.472;2023-12-22T03:41:44;9.20;99.10
17887;DHT22;9069;52.044;7.472;2023-12-22T03:44:11;9.10;99.20
17887;DHT22;9069;52.044;7.472;2023-12-22T03:46:38;9.10;99.20
17887;DHT22;9069;52.044;7.472;2023-12-22T03:49:05;9.10;99.10
17887;DHT22;9069;52.044;7.472;2023-12-22T03:51:32;9.10;99.10
17887;DHT22;9069;52.044;7.472;2023-12-22T03:53:59;9.10;99.20
17887;DHT22;9069;52.044;7.472;2023-12-22T03:56:26;9.10;99.20
17887;DHT22;9069;52.044;7.472;2023-12-22T03:58:53;9.00;99.20
17887;DHT22;9069;52.044;7.472;2023-12-22T04:01:20;9.10;99.30
17887;DHT22;9069;52.044;7.472;2023-12-22T04:03:47;9.00;99.20
17887;DHT22;9069;52.044;7.472;2023-12-22T04:06:14;9.00;99.20
17887;DHT22;9069;52.044;7.472;2023-12-22T04:08:40;9.00;99.20
17887;DHT22;9069;52.044;7.472;2023-12-22T04:11:07;9.00;99.20
17887;DHT22;9069;52.044;7.472;2023-12-22T04:13:34;9.00;99.30
17887;DHT22;9069;52.044;7.472;2023-12-22T04:16:01;9.00;99.30
17887;DHT22;9069;52.044;7.472;2023-12-22T04:18:31;9.00;99.40
17887;DHT22;9069;52.044;7.472;2023-12-22T04:20:59;9.00;99.50
17887;DHT22;9069;52.044;7.472;2023-12-22T04:23:26;9.00;99.60
17887;DHT22;9069;52.044;7.472;2023-12-22T04:25:53;9.00;99.70
17887;DHT22;9069;52.044;7.472;2023-12-22T04:28:20;9.00;99.70
17887;DHT22;9069;52.044;7.472;2023-12-22T04:30:47;9.10;99.80
17887;DHT22;9069;52.044;7.472;2023-12-22T04:33:14;9.20;99.80
17887;DHT22;9069;52.044;7.472;2023-12-22T04:35:41;9.00;99.70
17887;DHT22;9069;52.044;7.472;2023-12-22T04:38:08;9.00;99.70
17887;DHT22;9069;52.044;7.472;2023-12-22T04:40:35;9.10;99.60
17887;DHT22;9069;52.044;7.472;2023-12-22T04:43:02;9.00;99.60
17887;DHT22;9069;52.044;7.472;2023-12-22T04:45:29;9.00;99.60
17887;DHT22;9069;52.044;7.472;2023-12-22T04:47:56;9.00;99.60
17887;DHT22;9069;52.044;7.472;2023-12-22T04:50:24;9.00;99.90
17887;DHT22;9069;52.044;7.472;2023-12-22T04:52:51;8.90;99.60
17887;DHT22;9069;52.044;7.472;2023-12-22T04:55:17;9.00;99.60
17887;DHT22;9069;52.044;7.472;2023-12-22T04:57:45;8.90;99.60
17887;DHT22;9069;52.044;7.472;2023-12-22T05:00:12;9.00;99.60
17887;DHT22;9069;52.044;7.472;2023-12-22T05:02:39;8.90;99.60
17887;DHT22;9069;52.044;7.472;2023-12-22T05:05:06;8.90;99.70
17887;DHT22;9069;52.044;7.472;2023-12-22T05:07:34;8.90;99.70
17887;DHT22;9069;52.044;7.472;2023-12-22T05:10:02;8.90;99.90
17887;DHT22;9069;52.044;7.472;2023-12-22T05:12:29;8.90;99.80
17887;DHT22;9069;52.044;7.472;2023-12-22T05:14:56;8.80;99.90
17887;DHT22;9069;52.044;7.472;2023-12-22T05:17:23;8.90;99.90
17887;DHT22;9069;52.044;7.472;2023-12-22T05:19:50;8.90;99.90
17887;DHT22;9069;52.044;7.472;2023-12-22T05:22:17;8.90;99.90
17887;DHT22;9069;52.044;7.472;2023-12-22T05:24:44;8.80;99.90
17887;DHT22;9069;52.044;7.472;2023-12-22T05:27:10;8.90;99.90
17887;DHT22;9069;52.044;7.472;2023-12-22T05:29:37;8.80;99.90
17887;DHT22;9069;52.044;7.472;2023-12-22T05:32:05;8.90;99.90
17887;DHT22;9069;52.044;7.472;2023-12-22T05:34:32;8.80;99.90
17887;DHT22;9069;52.044;7.472;2023-12-22T05:36:59;9.00;99.90
17887;DHT22;9069;52.044;7.472;2023-12-22T05:39:26;8.80;99.90
17887;DHT22;9069;52.044;7.472;2023-12-22T05:41:53;8.90;99.90
17887;DHT22;9069;52.044;7.472;2023-12-22T05:44:20;8.90;99.90
17887;DHT22;9069;52.044;7.472;2023-12-22T05:46:49;8.90;99.90
17887;DHT22;9069;52.044;7.472;2023-12-22T05:49:16;8.90;99.90
17887;DHT22;9069;52.044;7.472;2023-12-22T05:51:43;8.90;99.90
17887;DHT22;9069;52.044;7.472;2023-12-22T05:54:10;8.90;99.90
17887;DHT22;9069;52.044;7.472;2023-12-22T05:56:38;8.90;99.90
17887;DHT22;9069;52.044;7.472;2023-12-22T05:59:04;8.90;99.90
17887;DHT22;9069;52.044;7.472;2023-12-22T06:01:32;8.90;99.90
17887;DHT22;9069;52.044;7.472;2023-12-22T06:03:59;8.90;99.90
17887;DHT22;9069;52.044;7.472;2023-12-22T06:06:26;8.90;99.90
17887;DHT22;9069;52.044;7.472;2023-12-22T06:08:54;8.90;99.90
17887;DHT22;9069;52.044;7.472;2023-12-22T06:11:21;8.90;99.90
17887;DHT22;9069;52.044;7.472;2023-12-22T06:13:49;8.90;99.90
17887;DHT22;9069;52.044;7.472;2023-12-22T06:16:16;8.90;99.90
17887;DHT22;9069;52.044;7.472;2023-12-22T06:18:45;8.90;99.90
17887;DHT22;9069;52.044;7.472;2023-12-22T06:21:12;8.90;99.90
17887;DHT22;9069;52.044;7.472;2023-12-22T06:23:39;9.00;99.90
17887;DHT22;9069;52.044;7.472;2023-12-22T06:26:09;9.00;99.90
17887;DHT22;9069;52.044;7.472;2023-12-22T06:28:37;9.00;99.90
17887;DHT22;9069;52.044;7.472;2023-12-22T06:31:06;9.00;99.90
17887;DHT22;9069;52.044;7.472;2023-12-22T06:33:33;9.00;99.90
17887;DHT22;9069;52.044;7.472;2023-12-22T06:36:00;9.00;99.90
17887;DHT22;9069;52.044;7.472;2023-12-22T06:38:27;9.00;99.90
17887;DHT22;9069;52.044;7.472;2023-12-22T06:40:54;9.00;99.90
17887;DHT22;9069;52.044;7.472;2023-12-22T06:43:22;9.00;99.90
17887;DHT22;9069;52.044;7.472;2023-12-22T06:45:49;9.00;99.90
17887;DHT22;9069;52.044;7.472;2023-12-22T06:48:16;9.10;99.90
17887;DHT22;9069;52.044;7.472;2023-12-22T06:50:43;9.10;99.90
17887;DHT22;9069;52.044;7.472;2023-12-22T06:53:12;9.10;99.90
17887;DHT22;9069;52.044;7.472;2023-12-22T06:55:51;9.10;99.90
17887;DHT22;9069;52.044;7.472;2023-12-22T06:58:18;9.10;99.90
17887;DHT22;9069;52.044;7.472;2023-12-22T07:00:48;9.10;99.90
17887;DHT22;9069;52.044;7.472;2023-12-22T07:03:15;9.10;99.90
17887;DHT22;9069;52.044;7.472;2023-12-22T07:05:44;9.10;99.90
17887;DHT22;9069;52.044;7.472;2023-12-22T07:08:11;9.10;99.90
17887;DHT22;9069;52.044;7.472;2023-12-22T07:10:38;9.20;99.90
17887;DHT22;9069;52.044;7.472;2023-12-22T07:13:05;9.20;99.90
17887;DHT22;9069;52.044;7.472;2023-12-22T07:15:33;9.20;99.90
17887;DHT22;9069;52.044;7.472;2023-12-22T07:18:00;9.20;99.90
17887;DHT22;9069;52.044;7.472;2023-12-22T07:20:28;9.30;99.90
17887;DHT22;9069;52.044;7.472;2023-12-22T07:22:54;9.30;99.90
17887;DHT22;9069;52.044;7.472;2023-12-22T07:25:23;9.30;99.90
17887;DHT22;9069;52.044;7.472;2023-12-22T07:27:50;9.30;99.90
17887;DHT22;9069;52.044;7.472;2023-12-22T07:30:18;9.30;99.90
17887;DHT22;9069;52.044;7.472;2023-12-22T07:32:47;9.30;99.90
17887;DHT22;9069;52.044;7.472;2023-12-22T07:35:20;9.30;99.90
17887;DHT22;9069;52.044;7.472;2023-12-22T07:37:47;9.30;99.90
17887;DHT22;9069;52.044;7.472;2023-12-22T07:40:14;9.30;99.90
17887;DHT22;9069;52.044;7.472;2023-12-22T07:42:43;9.30;99.90
17887;DHT22;9069;52.044;7.472;2023-12-22T07:45:10;9.40;99.90
17887;DHT22;9069;52.044;7.472;2023-12-22T07:47:40;9.30;99.90
17887;DHT22;9069;52.044;7.472;2023-12-22T07:50:08;9.40;99.90
17887;DHT22;9069;52.044;7.472;2023-12-22T07:52:35;9.40;99.90
17887;DHT22;9069;52.044;7.472;2023-12-22T07:55:07;9.40;99.90
17887;DHT22;9069;52.044;7.472;2023-12-22T07:57:35;9.40;99.90
17887;DHT22;9069;52.044;7.472;2023-12-22T08:00:02;9.30;99.90
17887;DHT22;9069;52.044;7.472;2023-12-22T08:02:37;9.30;99.90
17887;DHT22;9069;52.044;7.472;2023-12-22T08:05:04;9.40;99.90
17887;DHT22;9069;52.044;7.472;2023-12-22T08:07:32;9.30;99.90
17887;DHT22;9069;52.044;7.472;2023-12-22T08:09:58;9.30;99.90
17887;DHT22;9069;52.044;7.472;2023-12-22T08:12:27;9.30;99.90
17887;DHT22;9069;52.044;7.472;2023-12-22T08:14:54;9.20;99.90
17887;DHT22;9069;52.044;7.472;2023-12-22T08:17:21;9.20;99.90
17887;DHT22;9069;52.044;7.472;2023-12-22T08:19:48;9.20;99.90
17887;DHT22;9069;52.044;7.472;2023-12-22T08:22:18;9.20;99.90
17887;DHT22;9069;52.044;7.472;2023-12-22T08:24:46;9.20;99.90
17887;DHT22;9069;52.044;7.472;2023-12-22T08:27:14;9.20;99.90
17887;DHT22;9069;52.044;7.472;2023-12-22T08:29:41;9.20;99.90
17887;DHT22;9069;52.044;7.472;2023-12-22T08:32:08;8.60;99.90
17887;DHT22;9069;52.044;7.472;2023-12-22T08:34:35;9.20;99.90
17887;DHT22;9069;52.044;7.472;2023-12-22T08:37:02;9.20;99.90
17887;DHT22;9069;52.044;7.472;2023-12-22T08:39:29;9.20;99.90
17887;DHT22;9069;52.044;7.472;2023-12-22T08:41:56;9.10;99.90
17887;DHT22;9069;52.044;7.472;2023-12-22T08:44:23;9.10;99.90
17887;DHT22;9069;52.044;7.472;2023-12-22T08:46:50;9.10;99.90
17887;DHT22;9069;52.044;7.472;2023-12-22T08:49:16;9.20;99.90
17887;DHT22;9069;52.044;7.472;2023-12-22T08:51:44;9.10;99.90
17887;DHT22;9069;52.044;7.472;2023-12-22T08:54:10;9.10;99.90
17887;DHT22;9069;52.044;7.472;2023-12-22T08:56:37;9.10;99.90
17887;DHT22;9069;52.044;7.472;2023-12-22T08:59:04;9.20;99.90
17887;DHT22;9069;52.044;7.472;2023-12-22T09:01:31;9.10;99.90
17887;DHT22;9069;52.044;7.472;2023-12-22T09:03:58;9.20;99.90
17887;DHT22;9069;52.044;7.472;2023-12-22T09:06:25;9.20;99.90
17887;DHT22;9069;52.044;7.472;2023-12-22T09:08:52;9.20;99.90
17887;DHT22;9069;52.044;7.472;2023-12-22T09:11:20;9.20;99.90
17887;DHT22;9069;52.044;7.472;2023-12-22T09:13:48;9.20;99.90
17887;DHT22;9069;52.044;7.472;2023-12-22T09:16:20;9.30;99.90
17887;DHT22;9069;52.044;7.472;2023-12-22T09:18:48;9.20;99.90
17887;DHT22;9069;52.044;7.472;2023-12-22T09:21:15;9.30;99.90
17887;DHT22;9069;52.044;7.472;2023-12-22T09:23:43;9.40;99.90
17887;DHT22;9069;52.044;7.472;2023-12-22T09:26:13;9.30;99.90
17887;DHT22;9069;52.044;7.472;2023-12-22T09:28:41;9.30;99.90
17887;DHT22;9069;52.044;7.472;2023-12-22T09:31:08;9.30;99.90
17887;DHT22;9069;52.044;7.472;2023-12-22T09:33:36;9.40;99.90
17887;DHT22;9069;52.044;7.472;2023-12-22T09:36:04;9.40;99.90
17887;DHT22;9069;52.044;7.472;2023-12-22T09:38:31;9.50;99.90
17887;DHT22;9069;52.044;7.472;2023-12-22T09:40:58;9.60;99.90
17887;DHT22;9069;52.044;7.472;2023-12-22T09:43:25;9.70;99.90
17887;DHT22;9069;52.044;7.472;2023-12-22T09:45:53;9.80;99.90
17887;DHT22;9069;52.044;7.472;2023-12-22T09:48:23;9.90;99.90
17887;DHT22;9069;52.044;7.472;2023-12-22T09:50:55;9.90;99.90
17887;DHT22;9069;52.044;7.472;2023-12-22T09:53:23;10.00;99.90
17887;DHT22;9069;52.044;7.472;2023-12-22T09:55:51;10.10;99.90
17887;DHT22;9069;52.044;7.472;2023-12-22T09:58:21;10.10;99.90
17887;DHT22;9069;52.044;7.472;2023-12-22T10:00:48;10.10;99.90
17887;DHT22;9069;52.044;7.472;2023-12-22T10:03:18;10.10;99.90
17887;DHT22;9069;52.044;7.472;2023-12-22T10:05:46;10.10;99.90
17887;DHT22;9069;52.044;7.472;2023-12-22T10:08:14;10.10;99.90
17887;DHT22;9069;52.044;7.472;2023-12-22T10:10:41;10.10;99.90
17887;DHT22;9069;52.044;7.472;2023-12-22T10:13:10;10.10;99.90
17887;DHT22;9069;52.044;7.472;2023-12-22T10:15:40;10.10;99.90
17887;DHT22;9069;52.044;7.472;2023-12-22T10:18:08;10.10;99.90
17887;DHT22;9069;52.044;7.472;2023-12-22T10:20:36;10.10;99.90
17887;DHT22;9069;52.044;7.472;2023-12-22T10:23:03;10.20;99.90
17887;DHT22;9069;52.044;7.472;2023-12-22T10:25:30;10.20;99.90
17887;DHT22;9069;52.044;7.472;2023-12-22T10:27:59;10.10;99.90
17887;DHT22;9069;52.044;7.472;2023-12-22T10:30:27;10.10;99.90
17887;DHT22;9069;52.044;7.472;2023-12-22T10:32:54;10.10;99.90
17887;DHT22;9069;52.044;7.472;2023-12-22T10:35:22;10.10;99.90
17887;DHT22;9069;52.044;7.472;2023-12-22T10:37:50;10.10;99.90
17887;DHT22;9069;52.044;7.472;2023-12-22T10:40:21;10.10;99.90
17887;DHT22;9069;52.044;7.472;2023-12-22T10:42:48;10.00;99.90
17887;DHT22;9069;52.044;7.472;2023-12-22T10:45:18;10.00;99.90
17887;DHT22;9069;52.044;7.472;2023-12-22T10:47:45;10.00;99.90
17887;DHT22;9069;52.044;7.472;2023-12-22T10:50:12;10.00;99.90
17887;DHT22;9069;52.044;7.472;2023-12-22T10:52:40;10.00;99.90
17887;DHT22;9069;52.044;7.472;2023-12-22T10:55:08;10.00;99.90
17887;DHT22;9069;52.044;7.472;2023-12-22T10:57:35;10.00;99.90
17887;DHT22;9069;52.044;7.472;2023-12-22T11:00:06;10.00;99.90
17887;DHT22;9069;52.044;7.472;2023-12-22T11:02:35;9.90;99.90
17887;DHT22;9069;52.044;7.472;2023-12-22T11:05:05;10.00;99.90
17887;DHT22;9069;52.044;7.472;2023-12-22T11:07:36;9.90;99.90
17887;DHT22;9069;52.044;7.472;2023-12-22T11:10:06;9.90;99.90
17887;DHT22;9069;52.044;7.472;2023-12-22T11:12:36;9.90;99.90
17887;DHT22;9069;52.044;7.472;2023-12-22T11:15:04;9.90;99.90
17887;DHT22;9069;52.044;7.472;2023-12-22T11:17:34;9.90;99.90
17887;DHT22;9069;52.044;7.472;2023-12-22T11:20:03;9.90;99.90
17887;DHT22;9069;52.044;7.472;2023-12-22T11:22:32;9.90;99.90
17887;DHT22;9069;52.044;7.472;2023-12-22T11:25:00;9.90;99.90
17887;DHT22;9069;52.044;7.472;2023-12-22T11:27:29;9.90;99.90
17887;DHT22;9069;52.044;7.472;2023-12-22T11:29:56;9.80;99.90
17887;DHT22;9069;52.044;7.472;2023-12-22T11:32:25;9.80;99.90
17887;DHT22;9069;52.044;7.472;2023-12-22T11:34:54;9.90;99.90
17887;DHT22;9069;52.044;7.472;2023-12-22T11:37:23;9.80;99.90
17887;DHT22;9069;52.044;7.472;2023-12-22T11:39:50;9.90;99.90
17887;DHT22;9069;52.044;7.472;2023-12-22T11:42:25;9.80;99.90
17887;DHT22;9069;52.044;7.472;2023-12-22T11:44:53;9.80;99.90
17887;DHT22;9069;52.044;7.472;2023-12-22T11:47:23;9.80;99.90
17887;DHT22;9069;52.044;7.472;2023-12-22T11:49:50;9.80;99.90
17887;DHT22;9069;52.044;7.472;2023-12-22T11:52:18;9.80;99.90
17887;DHT22;9069;52.044;7.472;2023-12-22T11:54:53;9.80;99.90
17887;DHT22;9069;52.044;7.472;2023-12-22T12:02:54;9.90;99.90
17887;DHT22;9069;52.044;7.472;2023-12-22T12:05:23;9.90;99.90
17887;DHT22;9069;52.044;7.472;2023-12-22T12:07:50;9.90;99.90
17887;DHT22;9069;52.044;7.472;2023-12-22T12:13:10;9.90;99.90
17887;DHT22;9069;52.044;7.472;2023-12-22T12:15:38;9.90;99.90
17887;DHT22;9069;52.044;7.472;2023-12-22T12:18:05;9.90;99.90
17887;DHT22;9069;52.044;7.472;2023-12-22T12:20:33;9.90;99.90
17887;DHT22;9069;52.044;7.472;2023-12-22T12:23:03;9.90;99.90
17887;DHT22;9069;52.044;7.472;2023-12-22T12:25:34;9.90;99.90
17887;DHT22;9069;52.044;7.472;2023-12-22T12:28:06;9.90;99.90
17887;DHT22;9069;52.044;7.472;2023-12-22T12:30:35;9.90;99.90
17887;DHT22;9069;52.044;7.472;2023-12-22T12:33:10;9.90;99.90
17887;DHT22;9069;52.044;7.472;2023-12-22T12:35:38;9.90;99.90
17887;DHT22;9069;52.044;7.472;2023-12-22T12:38:11;9.90;99.90
17887;DHT22;9069;52.044;7.472;2023-12-22T12:40:39;9.90;99.90
17887;DHT22;9069;52.044;7.472;2023-12-22T12:43:08;9.90;99.90
17887;DHT22;9069;52.044;7.472;2023-12-22T12:45:34;9.90;99.90
17887;DHT22;9069;52.044;7.472;2023-12-22T12:48:02;9.90;99.90
17887;DHT22;9069;52.044;7.472;2023-12-22T12:50:33;10.00;99.90
17887;DHT22;9069;52.044;7.472;2023-12-22T12:53:01;10.00;99.90
17887;DHT22;9069;52.044;7.472;2023-12-22T12:55:28;10.00;99.90
17887;DHT22;9069;52.044;7.472;2023-12-22T12:57:56;10.00;99.90
17887;DHT22;9069;52.044;7.472;2023-12-22T13:00:31;10.00;99.90
17887;DHT22;9069;52.044;7.472;2023-12-22T13:03:03;10.00;99.90
17887;DHT22;9069;52.044;7.472;2023-12-22T13:05:32;10.00;99.90
17887;DHT22;9069;52.044;7.472;2023-12-22T13:08:10;10.00;99.90
17887;DHT22;9069;52.044;7.472;2023-12-22T13:10:38;10.00;99.90
17887;DHT22;9069;52.044;7.472;2023-12-22T13:13:06;10.10;99.90
17887;DHT22;9069;52.044;7.472;2023-12-22T13:15:33;10.00;99.90
17887;DHT22;9069;52.044;7.472;2023-12-22T13:18:01;10.00;99.90
17887;DHT22;9069;52.044;7.472;2023-12-22T13:20:28;10.00;99.90
17887;DHT22;9069;52.044;7.472;2023-12-22T13:22:55;10.00;99.90
17887;DHT22;9069;52.044;7.472;2023-12-22T13:25:22;10.00;99.90
17887;DHT22;9069;52.044;7.472;2023-12-22T13:27:51;10.00;99.90
17887;DHT22;9069;52.044;7.472;2023-12-22T13:30:36;10.00;99.90
17887;DHT22;9069;52.044;7.472;2023-12-22T13:33:05;10.00;99.90
17887;DHT22;9069;52.044;7.472;2023-12-22T13:35:33;10.00;99.90
17887;DHT22;9069;52.044;7.472;2023-12-22T13:38:07;10.00;99.90
17887;DHT22;9069;52.044;7.472;2023-12-22T13:40:35;10.00;99.90
17887;DHT22;9069;52.044;7.472;2023-12-22T13:43:02;10.00;99.90
17887;DHT22;9069;52.044;7.472;2023-12-22T13:45:31;10.00;99.90
17887;DHT22;9069;52.044;7.472;2023-12-22T13:47:58;10.00;99.90
17887;DHT22;9069;52.044;7.472;2023-12-22T13:50:26;10.00;99.90
17887;DHT22;9069;52.044;7.472;2023-12-22T13:52:53;10.00;99.90
17887;DHT22;9069;52.044;7.472;2023-12-22T13:55:22;10.00;99.90
17887;DHT22;9069;52.044;7.472;2023-12-22T13:57:59;10.00;99.90
17887;DHT22;9069;52.044;7.472;2023-12-22T14:00:30;10.00;99.90
17887;DHT22;9069;52.044;7.472;2023-12-22T14:03:01;10.00;99.90
17887;DHT22;9069;52.044;7.472;2023-12-22T14:05:28;10.00;99.90
17887;DHT22;9069;52.044;7.472;2023-12-22T14:08:03;10.00;99.90
17887;DHT22;9069;52.044;7.472;2023-12-22T14:10:30;9.90;99.90
17887;DHT22;9069;52.044;7.472;2023-12-22T14:12:57;10.00;99.90
17887;DHT22;9069;52.044;7.472;2023-12-22T14:15:24;10.00;99.90
17887;DHT22;9069;52.044;7.472;2023-12-22T14:18:07;10.00;99.90
17887;DHT22;9069;52.044;7.472;2023-12-22T14:20:34;10.00;99.90
17887;DHT22;9069;52.044;7.472;2023-12-22T14:23:01;10.00;99.90
17887;DHT22;9069;52.044;7.472;2023-12-22T14:25:28;10.00;99.90
17887;DHT22;9069;52.044;7.472;2023-12-22T14:27:55;10.00;99.90
17887;DHT22;9069;52.044;7.472;2023-12-22T14:30:24;10.00;99.90
17887;DHT22;9069;52.044;7.472;2023-12-22T14:32:50;10.00;99.90
17887;DHT22;9069;52.044;7.472;2023-12-22T14:35:17;10.00;99.90
17887;DHT22;9069;52.044;7.472;2023-12-22T14:37:44;10.00;99.90
17887;DHT22;9069;52.044;7.472;2023-12-22T14:40:13;10.00;99.90
17887;DHT22;9069;52.044;7.472;2023-12-22T14:42:40;10.00;99.90
17887;DHT22;9069;52.044;7.472;2023-12-22T14:45:07;10.00;99.90
17887;DHT22;9069;52.044;7.472;2023-12-22T14:47:34;10.00;99.90
17887;DHT22;9069;52.044;7.472;2023-12-22T14:50:02;10.00;99.90
17887;DHT22;9069;52.044;7.472;2023-12-22T14:52:31;10.00;99.90
17887;DHT22;9069;52.044;7.472;2023-12-22T14:55:02;10.00;99.90
17887;DHT22;9069;52.044;7.472;2023-12-22T14:57:30;10.00;99.90
17887;DHT22;9069;52.044;7.472;2023-12-22T14:59:59;10.10;99.90
17887;DHT22;9069;52.044;7.472;2023-12-22T15:02:27;10.00;99.90
17887;DHT22;9069;52.044;7.472;2023-12-22T15:04:54;10.10;99.90
17887;DHT22;9069;52.044;7.472;2023-12-22T15:07:25;10.10;99.90
17887;DHT22;9069;52.044;7.472;2023-12-22T15:09:52;10.10;99.90
17887;DHT22;9069;52.044;7.472;2023-12-22T15:12:19;10.10;99.90
17887;DHT22;9069;52.044;7.472;2023-12-22T15:14:46;10.10;99.90
17887;DHT22;9069;52.044;7.472;2023-12-22T15:17:14;10.10;99.90
17887;DHT22;9069;52.044;7.472;2023-12-22T15:19:41;10.10;99.90
17887;DHT22;9069;52.044;7.472;2023-12-22T15:22:12;10.10;99.90
17887;DHT22;9069;52.044;7.472;2023-12-22T15:24:42;10.10;99.90
17887;DHT22;9069;52.044;7.472;2023-12-22T15:27:12;10.10;99.90
17887;DHT22;9069;52.044;7.472;2023-12-22T15:29:39;10.10;99.90
17887;DHT22;9069;52.044;7.472;2023-12-22T15:32:06;10.10;99.90
17887;DHT22;9069;52.044;7.472;2023-12-22T15:34:33;10.10;99.90
17887;DHT22;9069;52.044;7.472;2023-12-22T15:37:00;10.10;99.90
17887;DHT22;9069;52.044;7.472;2023-12-22T15:39:27;10.10;99.90
17887;DHT22;9069;52.044;7.472;2023-12-22T15:41:54;10.20;99.90
17887;DHT22;9069;52.044;7.472;2023-12-22T15:44:21;10.10;99.90
17887;DHT22;9069;52.044;7.472;2023-12-22T15:46:48;10.10;99.90
17887;DHT22;9069;52.044;7.472;2023-12-22T15:49:15;10.10;99.90
17887;DHT22;9069;52.044;7.472;2023-12-22T15:51:42;10.10;99.90
17887;DHT22;9069;52.044;7.472;2023-12-22T15:54:10;10.20;99.90
17887;DHT22;9069;52.044;7.472;2023-12-22T15:56:37;10.20;99.90
17887;DHT22;9069;52.044;7.472;2023-12-22T15:59:04;10.20;99.90
17887;DHT22;9069;52.044;7.472;2023-12-22T16:01:31;10.20;99.90
17887;DHT22;9069;52.044;7.472;2023-12-22T16:03:59;10.20;99.90
17887;DHT22;9069;52.044;7.472;2023-12-22T16:06:26;10.20;99.90
17887;DHT22;9069;52.044;7.472;2023-12-22T16:08:53;10.40;99.90
17887;DHT22;9069;52.044;7.472;2023-12-22T16:11:20;10.20;99.90
17887;DHT22;9069;52.044;7.472;2023-12-22T16:13:47;10.20;99.90